Time;durP1;ratioP1;P1;durP2;ratioP2;P2;SDS_P1;SDS_P2;PMS_P1;PMS_P2;Temp;Humidity;BMP_temperature;BMP_pressure;BME280_temperature;BME280_humidity;BME280_pressure;Samples;Min_cycle;Max_cycle;Signal;HPM_P1;HPM_P2
2023/05/19 00:01:54;;;;;;;;;;;18.90;58.20;;;;;;10169564;28;94471;-65
2023/05/19 00:06:57;;;;;;;;;;;18.90;58.10;;;;;;10169155;28;94268;-66
2023/05/19 00:11:59;;;;;;;;;;;18.90;58.20;;;;;;10151431;28;92865;-66
2023/05/19 00:17:02;;;;;;;;;;;18.90;58.10;;;;;;10169027;28;93544;-67
2023/05/19 00:22:05;;;;;;;;;;;18.90;58.10;;;;;;10167208;28;92556;-67
2023/05/19 00:27:06;;;;;;;;;;;18.80;58.00;;;;;;10168706;28;94865;-66
2023/05/19 00:32:08;;;;;;;;;;;18.80;58.00;;;;;;10167399;28;92970;-66
2023/05/19 00:37:11;;;;;;;;;;;18.80;58.00;;;;;;10168367;28;93366;-67
2023/05/19 00:42:13;;;;;;;;;;;18.80;58.00;;;;;;10150290;28;93440;-66
2023/05/19 00:47:15;;;;;;;;;;;18.80;58.00;;;;;;10165363;28;95149;-66
2023/05/19 00:52:17;;;;;;;;;;;18.80;58.00;;;;;;10166763;28;92518;-67
2023/05/19 00:57:19;;;;;;;;;;;18.80;58.00;;;;;;10167114;28;93067;-66
2023/05/19 01:02:21;;;;;;;;;;;18.80;58.00;;;;;;10167559;28;94438;-66
2023/05/19 01:07:24;;;;;;;;;;;18.80;58.00;;;;;;10167052;28;93444;-67
2023/05/19 01:12:26;;;;;;;;;;;18.70;57.90;;;;;;10167105;28;93535;-67
2023/05/19 01:17:41;;;;;;;;;;;18.70;57.90;;;;;;10166996;28;93118;-66
2023/05/19 01:23:03;;;;;;;;;;;18.70;57.90;;;;;;10164894;28;92911;-66
2023/05/19 01:28:05;;;;;;;;;;;18.70;57.90;;;;;;10167281;28;94603;-66
2023/05/19 01:33:08;;;;;;;;;;;18.70;57.90;;;;;;10166478;28;93617;-66
2023/05/19 01:38:11;;;;;;;;;;;18.70;57.80;;;;;;10146960;28;95928;-66
2023/05/19 01:43:15;;;;;;;;;;;18.70;57.80;;;;;;10149029;28;93580;-66
2023/05/19 01:48:17;;;;;;;;;;;18.70;57.70;;;;;;10166666;28;94521;-66
2023/05/19 01:53:19;;;;;;;;;;;18.70;57.70;;;;;;10165899;28;94638;-66
2023/05/19 01:58:36;;;;;;;;;;;18.70;57.60;;;;;;10165415;28;94979;-65
2023/05/19 02:03:57;;;;;;;;;;;18.70;57.70;;;;;;10165854;28;94779;-67
2023/05/19 02:09:04;;;;;;;;;;;18.70;57.60;;;;;;10165916;28;93623;-66
2023/05/19 02:14:14;;;;;;;;;;;18.70;57.50;;;;;;10166078;28;92821;-66
2023/05/19 02:19:23;;;;;;;;;;;18.70;57.50;;;;;;10167311;28;94503;-66
2023/05/19 02:24:25;;;;;;;;;;;18.70;57.50;;;;;;10170588;28;94770;-66
2023/05/19 02:29:27;;;;;;;;;;;18.70;57.50;;;;;;10169364;28;96879;-65
2023/05/19 02:34:28;;;;;;;;;;;18.70;57.50;;;;;;10171489;28;93672;-66
2023/05/19 02:39:33;;;;;;;;;;;18.70;57.40;;;;;;10153327;28;93711;-66
2023/05/19 02:44:35;;;;;;;;;;;18.70;57.40;;;;;;10171407;28;92883;-66
2023/05/19 02:49:37;;;;;;;;;;;18.70;57.50;;;;;;10171709;28;94388;-66
2023/05/19 02:54:39;;;;;;;;;;;18.70;57.50;;;;;;10169760;28;94697;-66
2023/05/19 02:59:41;;;;;;;;;;;18.60;57.40;;;;;;10169410;28;93458;-66
2023/05/19 03:04:44;;;;;;;;;;;18.60;57.40;;;;;;10171096;28;92730;-66
2023/05/19 03:09:46;;;;;;;;;;;18.60;57.40;;;;;;10171149;28;94702;-66
2023/05/19 03:14:47;;;;;;;;;;;18.60;57.40;;;;;;10171301;28;93593;-66
2023/05/19 03:19:50;;;;;;;;;;;18.60;57.40;;;;;;10168653;28;96871;-66
2023/05/19 03:24:53;;;;;;;;;;;18.50;57.30;;;;;;10170322;28;93926;-66
2023/05/19 03:29:54;;;;;;;;;;;18.50;57.40;;;;;;10168897;28;94607;-66
2023/05/19 03:34:56;;;;;;;;;;;18.60;57.40;;;;;;10169780;28;93655;-66
2023/05/19 03:39:58;;;;;;;;;;;18.50;57.40;;;;;;10169258;28;94061;-66
2023/05/19 03:45:00;;;;;;;;;;;18.50;57.40;;;;;;10170081;28;94521;-66
2023/05/19 05:02:08;;;;;;;;;;;18.40;57.30;;;;;;10183968;28;93638;-65
2023/05/19 05:07:10;;;;;;;;;;;18.40;57.30;;;;;;10207342;28;94055;-66
2023/05/19 05:12:12;;;;;;;;;;;18.40;57.50;;;;;;10189629;28;94616;-67
2023/05/19 05:17:14;;;;;;;;;;;18.40;57.70;;;;;;10187268;28;95921;-66
2023/05/19 05:22:16;;;;;;;;;;;18.40;57.70;;;;;;10207257;28;94491;-66
2023/05/19 05:27:18;;;;;;;;;;;18.50;57.90;;;;;;10205689;28;96841;-66
2023/05/19 05:32:20;;;;;;;;;;;18.50;57.90;;;;;;10190007;28;94508;-66
2023/05/19 05:37:21;;;;;;;;;;;18.50;57.90;;;;;;10206628;28;93026;-66
2023/05/19 05:42:23;;;;;;;;;;;18.50;58.00;;;;;;10206269;28;94109;-66
2023/05/19 05:47:25;;;;;;;;;;;18.60;58.10;;;;;;10202761;28;93495;-66
2023/05/19 05:52:28;;;;;;;;;;;18.60;58.00;;;;;;10199953;28;94375;-66
2023/05/19 05:57:30;;;;;;;;;;;18.60;58.00;;;;;;10210395;28;94583;-66
2023/05/19 06:02:32;;;;;;;;;;;18.60;58.10;;;;;;10209312;28;94113;-66
2023/05/19 06:07:33;;;;;;;;;;;18.60;58.20;;;;;;10206731;28;96901;-67
2023/05/19 06:12:38;;;;;;;;;;;18.60;58.20;;;;;;10211694;28;94534;-66
2023/05/19 06:17:40;;;;;;;;;;;18.70;58.20;;;;;;10252604;28;93587;-67
2023/05/19 06:22:42;;;;;;;;;;;18.70;58.20;;;;;;10234774;28;93447;-67
2023/05/19 06:27:44;;;;;;;;;;;18.70;58.20;;;;;;10235684;28;93875;-67
2023/05/19 06:32:45;;;;;;;;;;;18.70;58.10;;;;;;10252935;28;93560;-67
2023/05/19 06:37:47;;;;;;;;;;;18.70;59.10;;;;;;10252808;28;94600;-68
2023/05/19 06:42:49;;;;;;;;;;;18.70;58.10;;;;;;10253574;28;93898;-67
2023/05/19 06:47:51;;;;;;;;;;;18.80;58.20;;;;;;10252172;28;94500;-66
2023/05/19 06:52:53;;;;;;;;;;;18.80;58.20;;;;;;10251347;28;93453;-66
2023/05/19 06:57:55;;;;;;;;;;;18.80;58.30;;;;;;10249671;28;96039;-66
2023/05/19 07:02:56;;;;;;;;;;;18.80;58.40;;;;;;10252370;28;94606;-67
2023/05/19 07:07:58;;;;;;;;;;;18.80;58.30;;;;;;10234087;28;94859;-66
2023/05/19 07:13:00;;;;;;;;;;;18.80;57.70;;;;;;10252505;28;94870;-67
2023/05/19 07:18:01;;;;;;;;;;;18.80;59.00;;;;;;10239877;28;94626;-65
2023/05/19 07:23:04;;;;;;;;;;;18.90;59.00;;;;;;10241410;28;94535;-67
2023/05/19 07:28:05;;;;;;;;;;;19.00;59.40;;;;;;10239155;28;94539;-69
2023/05/19 07:33:07;;;;;;;;;;;19.10;59.50;;;;;;10242684;28;93743;-69
2023/05/19 07:38:09;;;;;;;;;;;19.10;59.10;;;;;;10241871;28;93018;-68
2023/05/19 07:43:10;;;;;;;;;;;19.10;57.60;;;;;;10231069;28;93730;-68
2023/05/19 07:48:12;;;;;;;;;;;19.00;57.40;;;;;;10238025;28;96056;-69
2023/05/19 07:53:14;;;;;;;;;;;19.00;57.70;;;;;;10238619;28;94208;-68
2023/05/19 07:58:16;;;;;;;;;;;19.00;57.70;;;;;;10236527;28;93512;-67
2023/05/19 08:03:18;;;;;;;;;;;19.00;57.80;;;;;;10223066;28;94621;-67
2023/05/19 08:08:20;;;;;;;;;;;19.00;57.90;;;;;;10220578;28;93680;-67
2023/05/19 08:13:22;;;;;;;;;;;19.00;58.10;;;;;;10228212;28;93608;-67
2023/05/19 08:18:24;;;;;;;;;;;19.00;58.10;;;;;;10247030;28;93715;-67
2023/05/19 08:23:26;;;;;;;;;;;19.00;58.20;;;;;;10248542;28;92811;-68
2023/05/19 08:28:27;;;;;;;;;;;19.00;58.20;;;;;;10230103;28;94494;-68
2023/05/19 08:33:29;;;;;;;;;;;19.00;58.30;;;;;;10247975;28;94488;-69
2023/05/19 08:38:31;;;;;;;;;;;19.00;58.30;;;;;;10245292;28;96044;-70
2023/05/19 08:43:32;;;;;;;;;;;19.00;58.50;;;;;;10231720;28;93617;-68
2023/05/19 08:48:37;;;;;;;;;;;19.00;58.40;;;;;;10247890;28;94604;-69
2023/05/19 08:53:39;;;;;;;;;;;19.00;58.80;;;;;;10247258;28;94019;-67
2023/05/19 08:58:42;;;;;;;;;;;19.10;58.50;;;;;;10247593;28;94500;-68
2023/05/19 09:03:45;;;;;;;;;;;19.00;58.30;;;;;;10247102;28;93554;-68
2023/05/19 09:08:47;;;;;;;;;;;19.00;58.10;;;;;;10246954;28;94620;-68
2023/05/19 09:13:49;;;;;;;;;;;19.00;58.10;;;;;;10247898;28;93439;-68
2023/05/19 09:18:55;;;;;;;;;;;19.00;58.20;;;;;;10229244;28;93700;-67
2023/05/19 09:23:58;;;;;;;;;;;18.90;58.30;;;;;;10247149;28;94635;-68
2023/05/19 09:28:59;;;;;;;;;;;18.90;58.30;;;;;;10245854;28;95975;-68
2023/05/19 09:34:01;;;;;;;;;;;18.90;58.10;;;;;;10254240;28;94553;-68
2023/05/19 09:39:11;;;;;;;;;;;18.90;58.40;;;;;;10236975;28;93586;-72
2023/05/19 09:44:21;;;;;;;;;;;18.90;58.10;;;;;;10254657;28;93191;-68
2023/05/19 09:49:24;;;;;;;;;;;19.00;58.20;;;;;;10252211;28;94562;-69
2023/05/19 09:54:30;;;;;;;;;;;19.00;58.20;;;;;;10252998;28;94544;-68
2023/05/19 09:59:31;;;;;;;;;;;19.10;58.10;;;;;;10252537;28;94724;-69
2023/05/19 10:04:35;;;;;;;;;;;19.20;58.00;;;;;;10252699;28;93001;-67
2023/05/19 10:09:38;;;;;;;;;;;19.20;57.80;;;;;;10234030;28;93278;-68
2023/05/19 10:14:40;;;;;;;;;;;19.30;57.70;;;;;;10252264;28;94745;-68
2023/05/19 10:19:42;;;;;;;;;;;19.30;57.60;;;;;;10248186;28;95901;-68
2023/05/19 10:24:44;;;;;;;;;;;19.30;57.40;;;;;;10233087;28;93540;-69
2023/05/19 10:29:47;;;;;;;;;;;19.40;57.30;;;;;;10250532;28;95087;-68
2023/05/19 10:35:01;;;;;;;;;;;19.40;57.20;;;;;;10232915;28;93357;-67
2023/05/19 10:40:08;;;;;;;;;;;19.50;57.00;;;;;;10250361;28;94637;-68
2023/05/19 10:45:14;;;;;;;;;;;19.50;56.90;;;;;;10250194;28;93483;-66
2023/05/19 10:50:16;;;;;;;;;;;19.50;57.20;;;;;;10179979;28;1992449;-69
2023/05/19 10:55:37;;;;;;;;;;;19.50;56.80;;;;;;10235326;28;92819;-68
2023/05/19 11:00:42;;;;;;;;;;;19.50;56.80;;;;;;10234498;28;94034;-67
2023/05/19 11:05:45;;;;;;;;;;;19.40;56.80;;;;;;10233542;28;94464;-64
2023/05/19 11:10:50;;;;;;;;;;;19.40;56.80;;;;;;10242861;28;96303;-66
2023/05/19 11:15:55;;;;;;;;;;;19.50;56.80;;;;;;10246879;28;94196;-67
2023/05/19 11:21:00;;;;;;;;;;;19.40;56.80;;;;;;10247558;28;95377;-67
2023/05/19 11:26:02;;;;;;;;;;;19.40;56.80;;;;;;10246536;28;93450;-63
2023/05/19 11:31:06;;;;;;;;;;;19.40;56.80;;;;;;10247519;28;94656;-64
2023/05/19 11:36:09;;;;;;;;;;;19.40;56.80;;;;;;10245565;28;92809;-65
2023/05/19 11:41:14;;;;;;;;;;;19.40;56.80;;;;;;10247354;28;94485;-64
2023/05/19 11:46:16;;;;;;;;;;;19.40;56.70;;;;;;10250019;28;92802;-64
2023/05/19 11:51:19;;;;;;;;;;;19.40;56.80;;;;;;10247685;28;94566;-65
2023/05/19 11:56:21;;;;;;;;;;;19.40;56.80;;;;;;10247974;28;93482;-66
2023/05/19 12:01:25;;;;;;;;;;;19.40;56.90;;;;;;10246352;28;96068;-65
2023/05/19 12:06:27;;;;;;;;;;;19.40;56.80;;;;;;10248695;28;94461;-67
2023/05/19 12:11:30;;;;;;;;;;;19.50;56.80;;;;;;10248398;28;94542;-67
2023/05/19 12:16:35;;;;;;;;;;;19.50;56.80;;;;;;10247384;28;93028;-67
2023/05/19 12:21:36;;;;;;;;;;;19.50;56.60;;;;;;10247909;28;93667;-67
2023/05/19 12:26:39;;;;;;;;;;;19.50;56.40;;;;;;10247661;28;93524;-67
2023/05/19 12:31:44;;;;;;;;;;;19.50;56.20;;;;;;10248278;28;93675;-67
2023/05/19 12:36:46;;;;;;;;;;;19.50;56.10;;;;;;10248921;28;93722;-67
2023/05/19 12:41:48;;;;;;;;;;;19.50;55.80;;;;;;10248128;28;94642;-67
2023/05/19 12:46:50;;;;;;;;;;;19.50;55.50;;;;;;10247000;28;93559;-67
2023/05/19 12:51:52;;;;;;;;;;;19.50;55.60;;;;;;10168907;28;96050;-67
2023/05/19 12:56:56;;;;;;;;;;;19.50;55.50;;;;;;10166673;28;93521;-67
2023/05/19 13:01:58;;;;;;;;;;;19.50;55.50;;;;;;10167456;28;92514;-68
2023/05/19 13:07:00;;;;;;;;;;;19.50;55.20;;;;;;10166509;28;93804;-67
2023/05/19 13:12:03;;;;;;;;;;;19.50;54.00;;;;;;10166294;28;93712;-67
2023/05/19 13:17:05;;;;;;;;;;;19.50;51.90;;;;;;10166979;28;93487;-67
2023/05/19 13:22:06;;;;;;;;;;;19.50;50.50;;;;;;10149698;28;94514;-68
2023/05/19 13:27:08;;;;;;;;;;;19.50;50.30;;;;;;10166841;28;92847;-67
2023/05/19 13:32:10;;;;;;;;;;;19.50;49.60;;;;;;10166137;28;93579;-67
2023/05/19 13:37:11;;;;;;;;;;;19.40;48.90;;;;;;10165412;28;93523;-67
2023/05/19 13:42:13;;;;;;;;;;;19.50;48.70;;;;;;10162656;28;95852;-67
2023/05/19 13:47:15;;;;;;;;;;;19.50;48.70;;;;;;10164431;28;93400;-67
2023/05/19 13:52:20;;;;;;;;;;;19.50;48.40;;;;;;10203322;28;93581;-66
2023/05/19 13:57:22;;;;;;;;;;;19.50;49.20;;;;;;10203007;28;94519;-66
2023/05/19 14:02:23;;;;;;;;;;;19.60;48.80;;;;;;10201882;28;93350;-66
2023/05/19 14:07:26;;;;;;;;;;;19.60;49.00;;;;;;10202976;28;93883;-66
2023/05/19 14:12:27;;;;;;;;;;;19.60;48.60;;;;;;10202856;28;93513;-66
2023/05/19 14:17:47;;;;;;;;;;;19.60;48.20;;;;;;10208072;28;93240;-66
2023/05/19 14:22:49;;;;;;;;;;;19.50;48.20;;;;;;10211722;28;94189;-66
2023/05/19 14:27:51;;;;;;;;;;;19.50;47.70;;;;;;10210354;28;94660;-66
2023/05/19 14:32:53;;;;;;;;;;;19.50;47.40;;;;;;10190994;28;95613;-66
2023/05/19 14:37:55;;;;;;;;;;;19.50;47.40;;;;;;10209675;28;93984;-66
2023/05/19 14:42:56;;;;;;;;;;;19.50;47.40;;;;;;10209462;28;93976;-67
2023/05/19 14:47:58;;;;;;;;;;;19.50;47.70;;;;;;10209804;28;93649;-66
2023/05/19 14:53:00;;;;;;;;;;;19.50;48.30;;;;;;10209285;28;93867;-67
2023/05/19 14:58:01;;;;;;;;;;;19.50;48.70;;;;;;10209113;28;93671;-66
2023/05/19 15:03:10;;;;;;;;;;;19.50;48.90;;;;;;10209831;28;94595;-66
2023/05/19 15:08:12;;;;;;;;;;;19.50;48.50;;;;;;10202106;28;92755;-66
2023/05/19 15:13:14;;;;;;;;;;;19.50;48.00;;;;;;10192305;28;94605;-66
2023/05/19 15:18:17;;;;;;;;;;;19.50;47.10;;;;;;10209227;28;94630;-67
2023/05/19 15:23:19;;;;;;;;;;;19.50;46.80;;;;;;10205553;28;95866;-65
2023/05/19 15:28:20;;;;;;;;;;;19.50;46.60;;;;;;10207522;28;94425;-66
2023/05/19 15:33:22;;;;;;;;;;;19.50;46.90;;;;;;10208165;28;93597;-66
2023/05/19 15:38:24;;;;;;;;;;;19.50;46.70;;;;;;10191805;28;94712;-66
2023/05/19 15:43:28;;;;;;;;;;;19.50;46.90;;;;;;10207479;28;93728;-65
2023/05/19 15:48:31;;;;;;;;;;;19.50;48.50;;;;;;10181083;28;93543;-65
2023/05/19 15:53:32;;;;;;;;;;;19.60;49.10;;;;;;10167099;28;93169;-66
2023/05/19 15:58:34;;;;;;;;;;;19.60;51.90;;;;;;10169111;28;92784;-64
2023/05/19 16:03:36;;;;;;;;;;;19.70;52.00;;;;;;10168205;28;94029;-61
2023/05/19 16:08:38;;;;;;;;;;;19.80;51.70;;;;;;10150196;28;93670;-65
2023/05/19 16:13:40;;;;;;;;;;;19.80;52.20;;;;;;10164274;28;96933;-65
2023/05/19 16:18:42;;;;;;;;;;;19.80;53.00;;;;;;10150298;28;94595;-66
2023/05/19 16:23:44;;;;;;;;;;;19.90;55.00;;;;;;10166093;28;94378;-65
2023/05/19 16:28:46;;;;;;;;;;;19.90;51.80;;;;;;10167715;28;93764;-68
2023/05/19 16:33:48;;;;;;;;;;;20.00;53.00;;;;;;10149902;28;93456;-68
2023/05/19 16:38:50;;;;;;;;;;;20.00;53.30;;;;;;10165925;28;93574;-68
2023/05/19 16:43:51;;;;;;;;;;;20.00;53.80;;;;;;10166144;28;94120;-67
2023/05/19 16:48:53;;;;;;;;;;;20.10;53.80;;;;;;10179675;28;92867;-67
2023/05/19 16:53:55;;;;;;;;;;;20.10;54.30;;;;;;10206016;28;92597;-66
2023/05/19 16:58:57;;;;;;;;;;;20.20;54.50;;;;;;10206858;28;94481;-66
2023/05/19 17:03:58;;;;;;;;;;;20.20;55.30;;;;;;10203220;28;95963;-67
2023/05/19 17:09:00;;;;;;;;;;;20.20;56.30;;;;;;10205117;28;93442;-65
2023/05/19 17:14:06;;;;;;;;;;;20.20;56.60;;;;;;10205400;28;94182;-66
2023/05/19 17:19:08;;;;;;;;;;;20.20;56.30;;;;;;10205080;28;95054;-66
2023/05/19 17:24:10;;;;;;;;;;;20.20;56.50;;;;;;10205291;28;93802;-66
2023/05/19 17:29:11;;;;;;;;;;;20.30;57.20;;;;;;10204222;28;93670;-65
2023/05/19 17:34:13;;;;;;;;;;;20.40;57.20;;;;;;10205286;28;94507;-66
2023/05/19 17:39:15;;;;;;;;;;;20.40;56.90;;;;;;10205404;28;92190;-66
2023/05/19 17:44:17;;;;;;;;;;;20.40;56.70;;;;;;10204314;28;93532;-66
2023/05/19 17:49:18;;;;;;;;;;;20.40;56.90;;;;;;10205153;28;94873;-66
2023/05/19 17:54:20;;;;;;;;;;;20.30;57.10;;;;;;10209787;28;97256;-67
2023/05/19 17:59:23;;;;;;;;;;;20.30;57.20;;;;;;10211851;28;94481;-66
2023/05/19 18:04:25;;;;;;;;;;;20.30;57.30;;;;;;10210721;28;93711;-67
2023/05/19 18:09:29;;;;;;;;;;;20.40;57.40;;;;;;10194192;28;93235;-66
2023/05/19 18:14:30;;;;;;;;;;;20.30;57.70;;;;;;10193959;28;94688;-66
2023/05/19 18:19:32;;;;;;;;;;;20.40;58.00;;;;;;10211449;28;94544;-67
2023/05/19 18:24:34;;;;;;;;;;;20.50;57.90;;;;;;10192973;28;92598;-66
2023/05/19 18:29:36;;;;;;;;;;;20.50;57.90;;;;;;10211158;28;91843;-66
2023/05/19 18:34:37;;;;;;;;;;;20.50;58.00;;;;;;10210281;28;93898;-67
2023/05/19 18:39:39;;;;;;;;;;;20.50;58.10;;;;;;10209649;28;93547;-66
2023/05/19 18:44:45;;;;;;;;;;;20.40;58.10;;;;;;10206413;28;95945;-68
2023/05/19 18:49:47;;;;;;;;;;;20.50;58.00;;;;;;10209473;28;94486;-67
2023/05/19 18:54:50;;;;;;;;;;;20.50;57.70;;;;;;10208536;28;94593;-67
2023/05/19 18:59:52;;;;;;;;;;;20.50;57.70;;;;;;10209413;28;93645;-66
2023/05/19 19:04:54;;;;;;;;;;;20.60;57.70;;;;;;10209437;28;95084;-67
2023/05/19 19:09:55;;;;;;;;;;;20.60;58.80;;;;;;10208638;28;94558;-67
2023/05/19 19:14:57;;;;;;;;;;;20.60;57.80;;;;;;10209083;28;94492;-67
2023/05/19 19:19:59;;;;;;;;;;;20.70;58.00;;;;;;10208835;28;93317;-67
2023/05/19 19:25:01;;;;;;;;;;;20.70;58.70;;;;;;10190210;28;93201;-66
2023/05/19 19:30:03;;;;;;;;;;;20.80;58.10;;;;;;10209448;28;94615;-66
2023/05/19 19:35:05;;;;;;;;;;;20.80;59.50;;;;;;10205828;28;95872;-65
2023/05/19 19:40:07;;;;;;;;;;;21.00;58.20;;;;;;10190582;28;94729;-65
2023/05/19 19:45:09;;;;;;;;;;;21.00;58.40;;;;;;10208655;28;94495;-65
2023/05/19 19:50:15;;;;;;;;;;;20.90;58.40;;;;;;10205826;28;93500;-65
2023/05/19 19:55:17;;;;;;;;;;;20.90;58.70;;;;;;10207161;28;94931;-64
2023/05/19 20:00:18;;;;;;;;;;;21.00;59.90;;;;;;10206406;28;93500;-64
2023/05/19 20:05:20;;;;;;;;;;;21.00;59.60;;;;;;10206577;28;93490;-64
2023/05/19 20:10:22;;;;;;;;;;;21.00;59.50;;;;;;10206622;28;93466;-64
2023/05/19 20:15:24;;;;;;;;;;;20.90;59.40;;;;;;10187789;28;94473;-64
2023/05/19 20:20:26;;;;;;;;;;;20.90;59.50;;;;;;10206290;28;94637;-65
2023/05/19 20:25:28;;;;;;;;;;;20.80;59.70;;;;;;10203094;28;96433;-65
2023/05/19 20:30:30;;;;;;;;;;;20.80;59.60;;;;;;10206950;28;94716;-65
2023/05/19 20:35:32;;;;;;;;;;;20.80;59.60;;;;;;10207021;28;95333;-64
2023/05/19 20:40:36;;;;;;;;;;;20.70;59.50;;;;;;10188494;28;93472;-64
2023/05/19 20:45:37;;;;;;;;;;;20.70;59.40;;;;;;10207212;28;94435;-66
2023/05/19 20:50:39;;;;;;;;;;;20.70;59.70;;;;;;10206948;28;93038;-67
2023/05/19 20:55:45;;;;;;;;;;;20.70;59.60;;;;;;10207105;28;94642;-65
2023/05/19 21:00:52;;;;;;;;;;;20.70;59.60;;;;;;10207265;28;94082;-65
2023/05/19 21:05:54;;;;;;;;;;;20.70;59.50;;;;;;10205802;28;93522;-66
2023/05/19 21:10:55;;;;;;;;;;;20.70;59.40;;;;;;10206659;28;96300;-65
2023/05/19 21:15:57;;;;;;;;;;;20.70;59.30;;;;;;10202605;28;96041;-66
2023/05/19 21:21:02;;;;;;;;;;;20.60;59.20;;;;;;10205766;28;94556;-65
2023/05/19 21:26:06;;;;;;;;;;;20.60;59.20;;;;;;10210952;28;94556;-66
2023/05/19 21:31:07;;;;;;;;;;;20.60;59.10;;;;;;10212816;28;93588;-65
2023/05/19 21:36:09;;;;;;;;;;;20.60;59.10;;;;;;10211544;28;92806;-65
2023/05/19 21:41:11;;;;;;;;;;;20.50;59.00;;;;;;10212193;28;94509;-65
2023/05/19 21:46:13;;;;;;;;;;;20.50;59.00;;;;;;10211777;28;94575;-65
2023/05/19 21:51:15;;;;;;;;;;;20.60;59.00;;;;;;10212227;28;93599;-65
2023/05/19 21:56:16;;;;;;;;;;;20.50;59.00;;;;;;10210858;28;93902;-64
2023/05/19 22:01:18;;;;;;;;;;;20.50;59.00;;;;;;10211360;28;94457;-65
2023/05/19 22:06:20;;;;;;;;;;;20.40;58.90;;;;;;10209401;28;96919;-65
2023/05/19 22:11:22;;;;;;;;;;;20.40;58.90;;;;;;10212422;28;94511;-65
2023/05/19 22:16:24;;;;;;;;;;;20.40;58.90;;;;;;10211280;28;94255;-65
2023/05/19 22:21:26;;;;;;;;;;;20.40;58.90;;;;;;10210791;28;94778;-66
2023/05/19 22:26:27;;;;;;;;;;;20.30;58.80;;;;;;10193480;28;93981;-65
2023/05/19 22:31:29;;;;;;;;;;;20.30;58.80;;;;;;10210004;28;93592;-66
2023/05/19 22:36:31;;;;;;;;;;;20.30;58.60;;;;;;10209726;28;94488;-65
2023/05/19 22:41:33;;;;;;;;;;;20.30;58.60;;;;;;10194272;28;93903;-65
2023/05/19 22:46:35;;;;;;;;;;;20.20;58.50;;;;;;10210372;28;94120;-65
2023/05/19 22:51:38;;;;;;;;;;;20.20;58.50;;;;;;10208391;28;93840;-66
2023/05/19 22:56:41;;;;;;;;;;;20.20;58.50;;;;;;10190080;28;95981;-66
2023/05/19 23:01:45;;;;;;;;;;;20.10;58.50;;;;;;10208775;28;93568;-66
2023/05/19 23:06:50;;;;;;;;;;;20.10;58.50;;;;;;10210291;28;94748;-65
2023/05/19 23:11:52;;;;;;;;;;;20.00;58.40;;;;;;10209658;28;93174;-65
2023/05/19 23:16:54;;;;;;;;;;;20.00;58.40;;;;;;10208420;28;93683;-65
2023/05/19 23:21:56;;;;;;;;;;;20.00;58.30;;;;;;10209539;28;96053;-66
2023/05/19 23:26:59;;;;;;;;;;;20.00;58.30;;;;;;10208605;28;93646;-66
2023/05/19 23:32:01;;;;;;;;;;;19.90;58.20;;;;;;10208220;28;92763;-66
2023/05/19 23:37:03;;;;;;;;;;;19.90;58.30;;;;;;10209244;28;94771;-66
2023/05/19 23:42:05;;;;;;;;;;;19.90;58.20;;;;;;10209551;28;94615;-66
2023/05/19 23:47:06;;;;;;;;;;;19.90;58.20;;;;;;10204354;28;96844;-65
2023/05/19 23:52:08;;;;;;;;;;;19.80;58.20;;;;;;10207901;28;93877;-66
2023/05/19 23:57:10;;;;;;;;;;;19.80;58.20;;;;;;10190188;28;94528;-65
